createdAt,value
2024-05-09T00:00:50.426Z,998.009
2024-05-09T00:02:49.794Z,998.009
2024-05-09T00:04:50.207Z,997.960
2024-05-09T00:06:49.515Z,997.953
2024-05-09T00:08:49.959Z,998.063
2024-05-09T00:10:49.404Z,998.039
2024-05-09T00:12:49.808Z,998.009
2024-05-09T00:14:50.222Z,997.923
2024-05-09T00:16:49.642Z,998.024
2024-05-09T00:18:50.391Z,998.051
2024-05-09T00:20:49.697Z,997.866
2024-05-09T00:22:49.872Z,998.018
2024-05-09T00:24:50.301Z,997.946
2024-05-09T00:26:49.704Z,998.004
2024-05-09T00:28:49.945Z,997.966
2024-05-09T00:30:50.156Z,998.015
2024-05-09T00:32:50.251Z,997.941
2024-05-09T00:34:49.812Z,997.852
2024-05-09T00:36:50.170Z,997.865
2024-05-09T00:38:50.354Z,997.893
2024-05-09T00:40:49.623Z,997.892
2024-05-09T00:42:50.035Z,997.862
2024-05-09T00:44:50.186Z,997.763
2024-05-09T00:46:49.409Z,997.821
2024-05-09T00:48:49.962Z,997.802
2024-05-09T00:50:50.402Z,997.778
2024-05-09T00:52:49.761Z,997.765
2024-05-09T00:54:50.089Z,997.771
2024-05-09T00:56:50.322Z,997.739
2024-05-09T00:58:49.801Z,997.733
2024-05-09T01:00:50.171Z,997.717
2024-05-09T01:02:49.603Z,997.793
2024-05-09T01:04:49.952Z,997.755
2024-05-09T01:06:49.385Z,997.688
2024-05-09T01:08:49.588Z,997.826
2024-05-09T01:10:49.902Z,997.734
2024-05-09T01:12:50.239Z,997.662
2024-05-09T01:14:49.412Z,997.662
2024-05-09T01:16:49.880Z,997.679
2024-05-09T01:18:50.181Z,997.696
2024-05-09T01:20:49.488Z,997.662
2024-05-09T01:22:49.738Z,997.735
2024-05-09T01:24:50.180Z,997.736
2024-05-09T01:26:49.523Z,997.775
2024-05-09T01:28:49.939Z,997.730
2024-05-09T01:30:50.001Z,997.739
2024-05-09T01:32:50.301Z,997.733
2024-05-09T01:34:49.771Z,997.743
2024-05-09T01:36:50.043Z,997.804
2024-05-09T01:38:49.407Z,997.790
2024-05-09T01:40:49.630Z,997.820
2024-05-09T01:42:50.061Z,997.820
2024-05-09T01:44:50.254Z,997.727
2024-05-09T01:46:49.485Z,997.827
2024-05-09T01:48:49.939Z,997.730
2024-05-09T01:50:50.304Z,997.787
2024-05-09T01:52:49.733Z,997.804
2024-05-09T01:54:50.154Z,997.760
2024-05-09T01:56:50.346Z,997.747
2024-05-09T01:58:49.553Z,997.761
2024-05-09T02:00:49.808Z,997.719
2024-05-09T02:02:50.174Z,997.693
2024-05-09T02:04:49.604Z,997.733
2024-05-09T02:06:49.828Z,997.729
2024-05-09T02:08:50.214Z,997.751
2024-05-09T02:10:50.467Z,997.769
2024-05-09T02:12:50.075Z,997.798
2024-05-09T02:14:50.279Z,997.682
2024-05-09T02:16:49.754Z,997.784
2024-05-09T02:18:50.176Z,997.828
2024-05-09T02:20:49.573Z,997.898
2024-05-09T02:22:49.956Z,997.854
2024-05-09T02:24:50.340Z,997.761
2024-05-09T02:26:49.732Z,997.789
2024-05-09T02:28:50.071Z,997.789
2024-05-09T02:30:49.384Z,997.801
2024-05-09T02:32:49.935Z,997.728
2024-05-09T02:34:49.433Z,997.736
2024-05-09T02:36:49.634Z,997.790
2024-05-09T02:38:49.863Z,997.711
2024-05-09T02:40:50.099Z,997.652
2024-05-09T02:42:49.457Z,997.713
2024-05-09T02:44:49.677Z,997.702
2024-05-09T02:46:50.135Z,997.636
2024-05-09T02:48:49.693Z,997.735
2024-05-09T02:50:49.980Z,997.646
2024-05-09T02:52:50.374Z,997.658
2024-05-09T02:54:49.796Z,997.695
2024-05-09T02:56:50.210Z,997.695
2024-05-09T02:58:49.544Z,997.641
2024-05-09T03:00:49.939Z,997.700
2024-05-09T03:02:49.507Z,997.701
2024-05-09T03:04:49.924Z,997.638
2024-05-09T03:06:50.254Z,997.702
2024-05-09T03:08:49.457Z,997.679
2024-05-09T03:10:49.497Z,997.666
2024-05-09T03:12:49.692Z,997.724
2024-05-09T03:14:49.887Z,997.605
2024-05-09T03:16:50.189Z,997.665
2024-05-09T03:18:49.689Z,997.700
2024-05-09T03:20:50.234Z,997.707
2024-05-09T03:22:49.625Z,997.735
2024-05-09T03:24:50.004Z,997.679
2024-05-09T03:26:49.359Z,997.679
2024-05-09T03:28:49.626Z,997.767
2024-05-09T03:30:50.044Z,997.698
2024-05-09T03:32:49.596Z,997.710
2024-05-09T03:34:50.089Z,997.741
2024-05-09T03:36:49.478Z,997.624
2024-05-09T03:38:49.884Z,997.655
2024-05-09T03:40:50.620Z,997.721
2024-05-09T03:42:50.343Z,997.727
2024-05-09T03:44:50.304Z,997.640
2024-05-09T03:46:49.558Z,997.656
2024-05-09T03:48:49.864Z,997.665
2024-05-09T03:50:50.196Z,997.610
2024-05-09T03:52:49.610Z,997.598
2024-05-09T03:54:49.788Z,997.656
2024-05-09T03:56:50.216Z,997.623
2024-05-09T03:58:49.465Z,997.623
2024-05-09T04:00:49.652Z,997.639
2024-05-09T04:02:49.961Z,997.719
2024-05-09T04:04:49.551Z,997.743
2024-05-09T04:06:49.881Z,997.736
2024-05-09T04:08:50.120Z,997.780
2024-05-09T04:10:50.362Z,997.736
2024-05-09T04:12:49.731Z,997.760
2024-05-09T04:14:50.168Z,997.745
2024-05-09T04:16:50.347Z,997.697
2024-05-09T04:18:49.875Z,997.821
2024-05-09T04:20:50.323Z,997.752
2024-05-09T04:22:49.656Z,997.824
2024-05-09T04:24:49.794Z,997.734
2024-05-09T04:26:50.013Z,997.804
2024-05-09T04:28:50.256Z,997.747
2024-05-09T04:30:49.644Z,997.745
2024-05-09T04:32:49.985Z,997.765
2024-05-09T04:34:49.508Z,997.763
2024-05-09T04:36:49.919Z,997.767
2024-05-09T04:38:50.312Z,997.771
2024-05-09T04:40:49.758Z,997.719
2024-05-09T04:42:49.939Z,997.849
2024-05-09T04:44:50.157Z,997.923
2024-05-09T04:46:49.404Z,997.939
2024-05-09T04:48:49.682Z,997.992
2024-05-09T04:50:50.255Z,997.939
2024-05-09T04:52:49.676Z,997.939
2024-05-09T04:54:50.037Z,998.009
2024-05-09T04:56:50.228Z,998.045
2024-05-09T04:58:50.261Z,998.099
2024-05-09T05:00:49.530Z,998.082
2024-05-09T05:02:49.791Z,998.169
2024-05-09T05:04:50.290Z,998.204
2024-05-09T05:06:49.754Z,998.142
2024-05-09T05:08:49.924Z,998.100
2024-05-09T05:10:49.714Z,998.138
2024-05-09T05:12:50.191Z,998.146
2024-05-09T05:14:49.395Z,998.068
2024-05-09T05:16:49.820Z,998.097
2024-05-09T05:18:50.338Z,998.155
2024-05-09T05:20:49.960Z,998.183
2024-05-09T05:22:49.445Z,998.128
2024-05-09T05:24:49.661Z,998.171
2024-05-09T05:26:49.859Z,998.171
2024-05-09T05:28:50.169Z,998.121
2024-05-09T05:30:49.645Z,998.121
2024-05-09T05:32:50.318Z,998.167
2024-05-09T05:34:49.798Z,998.188
2024-05-09T05:36:50.183Z,998.129
2024-05-09T05:38:50.471Z,998.155
2024-05-09T05:40:49.904Z,998.143
2024-05-09T05:42:50.190Z,998.143
2024-05-09T05:44:49.391Z,998.265
2024-05-09T05:46:49.591Z,998.265
2024-05-09T05:48:49.959Z,998.286
2024-05-09T05:50:50.299Z,998.296
2024-05-09T05:52:49.651Z,998.225
2024-05-09T05:54:50.092Z,998.218
2024-05-09T05:56:49.504Z,998.239
2024-05-09T05:58:49.723Z,998.201
2024-05-09T06:00:50.012Z,998.338
2024-05-09T06:02:50.480Z,998.312
2024-05-09T06:04:50.010Z,998.415
2024-05-09T06:06:49.338Z,998.423
2024-05-09T06:08:49.672Z,998.400
2024-05-09T06:10:50.107Z,998.419
2024-05-09T06:12:49.409Z,998.324
2024-05-09T06:14:49.847Z,998.361
2024-05-09T06:16:50.076Z,998.359
2024-05-09T06:18:49.597Z,998.409
2024-05-09T06:20:49.932Z,998.438
2024-05-09T06:22:50.343Z,998.379
2024-05-09T06:24:49.701Z,998.334
2024-05-09T06:26:49.910Z,998.431
2024-05-09T06:28:50.210Z,998.414
2024-05-09T06:30:49.730Z,998.355
2024-05-09T06:32:50.325Z,998.355
2024-05-09T06:34:49.861Z,998.342
2024-05-09T06:36:50.198Z,998.336
2024-05-09T06:38:49.616Z,998.387
2024-05-09T06:40:50.034Z,998.391
2024-05-09T06:42:49.472Z,998.397
2024-05-09T06:44:49.655Z,998.323
2024-05-09T06:46:50.128Z,998.304
2024-05-09T06:50:49.938Z,998.382
2024-05-09T06:52:50.325Z,998.333
2024-05-09T06:54:49.702Z,998.296
2024-05-09T06:56:50.136Z,998.369
2024-05-09T06:58:50.339Z,998.410
2024-05-09T07:00:49.593Z,998.312
2024-05-09T07:02:50.005Z,998.230
2024-05-09T07:04:49.827Z,998.274
2024-05-09T07:06:50.208Z,998.344
2024-05-09T07:08:51.909Z,998.423
2024-05-09T07:10:49.760Z,998.344
2024-05-09T07:12:50.034Z,998.361
2024-05-09T07:14:50.272Z,998.373
2024-05-09T07:16:49.774Z,998.441
2024-05-09T07:18:50.295Z,998.278
2024-05-09T07:20:50.702Z,998.344
2024-05-09T07:22:49.773Z,998.319
2024-05-09T07:24:50.132Z,998.333
2024-05-09T07:26:49.530Z,998.416
2024-05-09T07:28:49.617Z,998.308
2024-05-09T07:30:50.171Z,998.280
2024-05-09T07:32:49.855Z,998.285
2024-05-09T07:34:50.225Z,998.227
2024-05-09T07:36:49.611Z,998.299
2024-05-09T07:38:50.154Z,998.270
2024-05-09T07:40:49.753Z,998.270
2024-05-09T07:42:50.061Z,998.342
2024-05-09T07:44:49.475Z,998.270
2024-05-09T07:47:48.849Z,998.319
2024-05-09T07:53:35.342Z,998.250
2024-05-09T07:54:49.701Z,998.321
2024-05-09T07:56:50.245Z,998.227
2024-05-09T07:58:49.565Z,998.228
2024-05-09T08:00:49.881Z,998.198
2024-05-09T08:02:50.252Z,998.306
2024-05-09T08:04:49.683Z,998.236
2024-05-09T08:06:50.097Z,998.226
2024-05-09T08:08:49.495Z,998.208
2024-05-09T08:10:49.676Z,998.188
2024-05-09T08:12:49.913Z,998.207
2024-05-09T08:14:50.303Z,998.246
2024-05-09T08:16:49.493Z,998.314
2024-05-09T08:18:49.833Z,998.314
2024-05-09T08:20:50.155Z,998.249
2024-05-09T08:22:49.540Z,998.291
2024-05-09T08:24:49.798Z,998.298
2024-05-09T08:26:50.198Z,998.285
2024-05-09T08:28:49.360Z,998.323
2024-05-09T08:30:49.855Z,998.251
2024-05-09T08:32:50.346Z,998.215
2024-05-09T08:34:49.719Z,998.182
2024-05-09T08:36:49.881Z,998.261
2024-05-09T08:38:50.061Z,998.183
2024-05-09T08:40:50.506Z,998.289
2024-05-09T08:42:50.163Z,998.271
2024-05-09T08:44:49.495Z,998.195
2024-05-09T08:46:49.726Z,998.162
2024-05-09T08:48:50.261Z,998.128
2024-05-09T08:50:49.577Z,998.136
2024-05-09T08:52:49.758Z,998.160
2024-05-09T08:54:50.219Z,998.230
2024-05-09T08:56:49.592Z,998.150
2024-05-09T08:58:49.849Z,998.173
2024-05-09T09:00:50.239Z,998.236
2024-05-09T09:02:49.461Z,998.130
2024-05-09T09:04:49.914Z,998.130
2024-05-09T09:06:49.560Z,998.311
2024-05-09T09:08:49.667Z,998.228
2024-05-09T09:10:49.973Z,998.212
2024-05-09T09:12:50.375Z,998.250
2024-05-09T09:14:49.710Z,998.250
2024-05-09T09:16:49.948Z,998.185
2024-05-09T09:18:50.308Z,998.276
2024-05-09T09:20:49.551Z,998.265
2024-05-09T09:22:49.774Z,998.138
2024-05-09T09:24:50.041Z,998.216
2024-05-09T09:26:49.406Z,998.290
2024-05-09T09:28:49.610Z,998.185
2024-05-09T09:30:49.965Z,998.122
2024-05-09T09:32:50.316Z,998.236
2024-05-09T09:34:49.491Z,998.164
2024-05-09T09:36:49.749Z,998.181
2024-05-09T09:38:50.106Z,998.122
2024-05-09T09:40:50.113Z,998.109
2024-05-09T09:42:49.764Z,998.161
2024-05-09T09:44:58.140Z,998.135
2024-05-09T09:46:50.259Z,998.120
2024-05-09T09:48:49.618Z,998.120
2024-05-09T09:50:49.974Z,998.152
2024-05-09T09:52:50.215Z,998.164
2024-05-09T09:54:49.660Z,998.154
2024-05-09T09:56:50.010Z,998.127
2024-05-09T09:58:49.409Z,998.202
2024-05-09T10:00:49.853Z,998.169
2024-05-09T10:02:50.177Z,998.182
2024-05-09T10:04:49.610Z,998.223
2024-05-09T10:06:49.935Z,998.158
2024-05-09T10:08:50.148Z,998.196
2024-05-09T10:10:50.761Z,998.181
2024-05-09T10:12:49.963Z,998.144
2024-05-09T10:14:49.352Z,998.114
2024-05-09T10:16:49.582Z,998.079
2024-05-09T10:18:49.977Z,998.079
2024-05-09T10:20:49.422Z,998.064
2024-05-09T10:22:49.831Z,998.007
2024-05-09T10:24:49.933Z,998.005
2024-05-09T10:26:50.064Z,997.960
2024-05-09T10:28:50.222Z,998.058
2024-05-09T10:30:50.469Z,998.075
2024-05-09T10:32:49.904Z,998.074
2024-05-09T10:34:50.307Z,998.011
2024-05-09T10:36:49.776Z,997.994
2024-05-09T10:38:50.136Z,998.001
2024-05-09T10:40:49.460Z,998.093
2024-05-09T10:42:49.619Z,997.982
2024-05-09T10:44:49.962Z,997.938
2024-05-09T10:46:50.234Z,998.021
2024-05-09T10:48:50.143Z,998.073
2024-05-09T10:50:49.403Z,998.164
2024-05-09T10:52:49.643Z,998.080
2024-05-09T10:54:49.906Z,998.139
2024-05-09T10:56:50.288Z,998.056
2024-05-09T10:58:49.474Z,998.042
2024-05-09T11:00:49.787Z,997.959
2024-05-09T11:02:50.250Z,998.007
2024-05-09T11:04:49.657Z,997.953
2024-05-09T11:06:49.976Z,997.981
2024-05-09T11:08:50.389Z,997.901
2024-05-09T11:10:49.663Z,997.921
2024-05-09T11:12:50.007Z,997.852
2024-05-09T11:14:49.424Z,997.776
2024-05-09T11:16:49.590Z,997.873
2024-05-09T11:18:50.281Z,997.789
2024-05-09T11:20:49.677Z,997.818
2024-05-09T11:22:50.038Z,997.757
2024-05-09T11:24:49.552Z,997.750
2024-05-09T11:26:49.900Z,997.825
2024-05-09T11:28:50.438Z,997.744
2024-05-09T11:30:50.060Z,997.626
2024-05-09T11:32:50.471Z,997.792
2024-05-09T11:34:49.939Z,997.798
2024-05-09T11:36:50.165Z,997.694
2024-05-09T11:38:49.354Z,997.675
2024-05-09T11:40:49.679Z,997.656
2024-05-09T11:42:53.024Z,997.643
2024-05-09T11:44:49.617Z,997.677
2024-05-09T11:46:49.821Z,997.677
2024-05-09T11:48:50.495Z,997.724
2024-05-09T11:50:50.054Z,997.656
2024-05-09T11:52:49.489Z,997.721
2024-05-09T11:54:49.943Z,997.644
2024-05-09T11:56:50.150Z,997.620
2024-05-09T11:58:49.530Z,997.567
2024-05-09T12:00:49.771Z,997.505
2024-05-09T12:02:50.218Z,997.566
2024-05-09T12:04:49.683Z,997.611
2024-05-09T12:06:50.075Z,997.638
2024-05-09T12:08:49.591Z,997.638
2024-05-09T12:10:50.069Z,997.694
2024-05-09T12:12:49.414Z,997.631
2024-05-09T12:14:49.877Z,997.674
2024-05-09T12:16:50.147Z,997.545
2024-05-09T12:18:50.329Z,997.604
2024-05-09T12:20:49.698Z,997.615
2024-05-09T12:22:50.089Z,997.605
2024-05-09T12:24:50.416Z,997.619
2024-05-09T12:26:49.749Z,997.574
2024-05-09T12:28:49.937Z,997.600
2024-05-09T12:30:50.200Z,997.707
2024-05-09T12:32:49.649Z,997.649
2024-05-09T12:34:50.213Z,997.683
2024-05-09T12:36:49.622Z,997.671
2024-05-09T12:38:50.035Z,997.701
2024-05-09T12:40:50.403Z,997.676
2024-05-09T12:42:49.910Z,997.589
2024-05-09T12:44:50.279Z,997.595
2024-05-09T12:46:49.652Z,997.607
2024-05-09T12:48:50.109Z,997.579
2024-05-09T12:50:49.727Z,997.569
2024-05-09T12:52:50.117Z,997.524
2024-05-09T12:54:50.331Z,997.477
2024-05-09T12:56:49.563Z,997.474
2024-05-09T12:58:49.736Z,997.437
2024-05-09T13:00:50.250Z,997.490
2024-05-09T13:02:49.632Z,997.449
2024-05-09T13:04:50.154Z,997.442
2024-05-09T13:06:49.599Z,997.358
2024-05-09T13:08:49.859Z,997.404
2024-05-09T13:10:50.108Z,997.364
2024-05-09T13:12:49.598Z,997.362
2024-05-09T13:14:49.704Z,997.250
2024-05-09T13:16:49.908Z,997.216
2024-05-09T13:18:50.407Z,997.172
2024-05-09T13:20:49.699Z,997.121
2024-05-09T13:22:49.935Z,997.181
2024-05-09T13:24:50.191Z,997.070
2024-05-09T13:26:49.767Z,997.131
2024-05-09T13:28:49.982Z,997.035
2024-05-09T13:30:50.191Z,997.081
2024-05-09T13:32:49.676Z,997.064
2024-05-09T13:34:50.061Z,997.133
2024-05-09T13:36:50.278Z,997.174
2024-05-09T13:38:49.450Z,997.134
2024-05-09T13:40:50.665Z,997.119
2024-05-09T13:42:50.141Z,997.144
2024-05-09T13:44:49.474Z,997.142
2024-05-09T13:46:49.747Z,997.129
2024-05-09T13:48:50.204Z,997.108
2024-05-09T13:50:49.775Z,997.132
2024-05-09T13:52:49.991Z,997.069
2024-05-09T13:54:50.417Z,996.999
2024-05-09T13:56:49.798Z,997.068
2024-05-09T13:58:50.000Z,997.006
2024-05-09T14:00:50.265Z,997.048
2024-05-09T14:02:49.674Z,996.949
2024-05-09T14:04:50.210Z,997.009
2024-05-09T14:06:49.466Z,996.808
2024-05-09T14:08:49.654Z,996.849
2024-05-09T14:10:50.302Z,996.751
2024-05-09T14:12:49.984Z,996.789
2024-05-09T14:14:50.087Z,996.741
2024-05-09T14:16:50.455Z,996.772
2024-05-09T14:18:49.851Z,996.757
2024-05-09T14:20:50.158Z,996.735
2024-05-09T14:22:49.342Z,996.762
2024-05-09T14:24:49.572Z,996.784
2024-05-09T14:26:49.802Z,996.780
2024-05-09T14:28:50.006Z,996.728
2024-05-09T14:30:49.462Z,996.729
2024-05-09T14:32:49.744Z,996.710
2024-05-09T14:34:50.370Z,996.710
2024-05-09T14:36:49.934Z,996.634
2024-05-09T14:38:50.270Z,996.683
2024-05-09T14:40:49.677Z,996.629
2024-05-09T14:42:50.155Z,996.585
2024-05-09T14:44:50.328Z,996.548
2024-05-09T14:46:49.831Z,996.563
2024-05-09T14:48:50.075Z,996.431
2024-05-09T14:50:49.381Z,996.454
2024-05-09T14:52:49.566Z,996.402
2024-05-09T14:54:59.497Z,996.446
2024-05-09T14:56:50.055Z,996.343
2024-05-09T14:58:49.421Z,996.343
2024-05-09T15:00:51.363Z,996.388
2024-05-09T15:02:49.938Z,996.394
2024-05-09T15:04:50.424Z,996.405
2024-05-09T15:06:49.709Z,996.384
2024-05-09T15:08:49.890Z,996.416
2024-05-09T15:10:50.785Z,996.342
2024-05-09T15:12:50.348Z,996.403
2024-05-09T15:14:49.539Z,996.375
2024-05-09T15:16:49.773Z,996.294
2024-05-09T15:18:50.169Z,996.351
2024-05-09T15:20:49.712Z,996.303
2024-05-09T15:22:50.025Z,996.255
2024-05-09T15:24:50.219Z,996.300
2024-05-09T15:26:49.599Z,996.258
2024-05-09T15:28:49.865Z,996.294
2024-05-09T15:30:50.378Z,996.236
2024-05-09T15:32:49.762Z,996.315
2024-05-09T15:34:50.084Z,996.339
2024-05-09T15:36:50.327Z,996.175
2024-05-09T15:38:49.505Z,996.265
2024-05-09T15:40:49.914Z,996.222
2024-05-09T15:42:50.432Z,996.299
2024-05-09T15:44:49.785Z,996.256
2024-05-09T15:46:49.964Z,996.202
2024-05-09T15:48:50.346Z,996.202
2024-05-09T15:50:49.675Z,996.114
2024-05-09T15:52:50.004Z,996.133
2024-05-09T15:54:49.481Z,996.134
2024-05-09T15:56:49.642Z,996.173
2024-05-09T15:58:49.854Z,996.113
2024-05-09T16:00:52.147Z,996.106
2024-05-09T16:02:49.766Z,996.114
2024-05-09T16:04:50.380Z,996.066
2024-05-09T16:06:49.731Z,996.066
2024-05-09T16:08:49.949Z,996.201
2024-05-09T16:10:50.409Z,996.130
2024-05-09T16:12:49.805Z,996.100
2024-05-09T16:14:50.023Z,996.096
2024-05-09T16:16:50.342Z,996.084
2024-05-09T16:18:49.811Z,996.032
2024-05-09T16:20:50.588Z,996.045
2024-05-09T16:22:49.835Z,996.112
2024-05-09T16:24:50.100Z,996.060
2024-05-09T16:26:49.470Z,996.048
2024-05-09T16:28:49.884Z,996.048
2024-05-09T16:30:50.362Z,995.976
2024-05-09T16:32:49.782Z,996.011
2024-05-09T16:34:50.227Z,995.998
2024-05-09T16:36:49.752Z,995.917
2024-05-09T16:38:49.967Z,995.911
2024-05-09T16:40:49.520Z,995.951
2024-05-09T16:42:50.032Z,995.982
2024-05-09T16:44:49.413Z,995.913
2024-05-09T16:46:49.627Z,995.836
2024-05-09T16:48:50.103Z,995.749
2024-05-09T16:50:49.464Z,995.658
2024-05-09T16:52:49.647Z,995.611
2024-05-09T16:54:50.214Z,995.505
2024-05-09T16:56:49.496Z,995.457
2024-05-09T16:58:49.900Z,995.432
2024-05-09T17:00:50.626Z,995.462
2024-05-09T17:02:50.198Z,995.457
2024-05-09T17:04:49.684Z,995.374
2024-05-09T17:06:50.237Z,995.419
2024-05-09T17:08:49.587Z,995.365
2024-05-09T17:10:50.314Z,995.365
2024-05-09T17:12:49.888Z,995.350
2024-05-09T17:14:50.250Z,995.278
2024-05-09T17:16:49.452Z,995.349
2024-05-09T17:18:49.718Z,995.295
2024-05-09T17:20:49.856Z,995.268
2024-05-09T17:22:50.063Z,995.235
2024-05-09T17:24:50.365Z,995.195
2024-05-09T17:26:49.721Z,995.209
2024-05-09T17:28:49.897Z,995.187
2024-05-09T17:30:50.259Z,995.223
2024-05-09T17:32:49.650Z,995.182
2024-05-09T17:34:50.249Z,995.159
2024-05-09T17:36:49.602Z,995.186
2024-05-09T17:38:49.797Z,995.146
2024-05-09T17:40:50.069Z,995.203
2024-05-09T17:42:49.395Z,995.155
2024-05-09T17:44:49.641Z,995.178
2024-05-09T17:46:50.057Z,995.183
2024-05-09T17:48:50.420Z,995.207
2024-05-09T17:50:49.701Z,995.197
2024-05-09T17:52:49.900Z,995.185
2024-05-09T17:54:50.179Z,995.286
2024-05-09T17:56:49.502Z,995.228
2024-05-09T17:58:49.728Z,995.275
2024-05-09T18:00:50.432Z,995.203
2024-05-09T18:02:49.785Z,995.252
2024-05-09T18:04:50.169Z,995.260
2024-05-09T18:06:49.518Z,995.230
2024-05-09T18:08:49.612Z,995.251
2024-05-09T18:10:51.973Z,995.251
2024-05-09T18:12:50.190Z,995.142
2024-05-09T18:14:49.439Z,995.142
2024-05-09T18:16:49.873Z,995.190
2024-05-09T18:18:50.323Z,995.211
2024-05-09T18:20:49.973Z,995.178
2024-05-09T18:22:50.307Z,995.285
2024-05-09T18:24:49.775Z,995.258
2024-05-09T18:26:49.944Z,995.251
2024-05-09T18:28:50.141Z,995.251
2024-05-09T18:30:49.430Z,995.227
2024-05-09T18:32:49.863Z,995.255
2024-05-09T18:34:49.599Z,995.217
2024-05-09T18:36:49.895Z,995.260
2024-05-09T18:38:50.230Z,995.267
2024-05-09T18:40:50.026Z,995.184
2024-05-09T18:42:50.308Z,995.230
2024-05-09T18:44:49.687Z,995.179
2024-05-09T18:46:50.072Z,995.188
2024-05-09T18:48:49.559Z,995.242
2024-05-09T18:50:49.983Z,995.316
2024-05-09T18:52:50.327Z,995.306
2024-05-09T18:54:49.594Z,995.239
2024-05-09T18:56:50.013Z,995.315
2024-05-09T18:58:49.362Z,995.272
2024-05-09T19:00:51.338Z,995.282
2024-05-09T19:02:49.912Z,995.385
2024-05-09T19:04:49.790Z,995.379
2024-05-09T19:06:50.127Z,995.447
2024-05-09T19:08:50.247Z,995.460
2024-05-09T19:10:49.602Z,995.431
2024-05-09T19:12:49.994Z,995.361
2024-05-09T19:14:50.289Z,995.431
2024-05-09T19:16:49.500Z,995.421
2024-05-09T19:18:49.970Z,995.454
2024-05-09T19:20:50.390Z,995.492
2024-05-09T19:22:49.973Z,995.425
2024-05-09T19:24:50.257Z,995.490
2024-05-09T19:26:49.408Z,995.510
2024-05-09T19:28:49.559Z,995.522
2024-05-09T19:30:50.109Z,995.500
2024-05-09T19:32:49.559Z,995.543
2024-05-09T19:34:49.833Z,995.571
2024-05-09T19:36:49.870Z,995.625
2024-05-09T19:38:50.284Z,995.625
2024-05-09T19:40:50.030Z,995.573
2024-05-09T19:42:49.596Z,995.591
2024-05-09T19:44:49.724Z,995.638
2024-05-09T19:46:49.914Z,995.540
2024-05-09T19:48:49.683Z,995.572
2024-05-09T19:50:52.914Z,995.554
2024-05-09T19:52:49.587Z,995.592
2024-05-09T19:54:49.925Z,995.557
2024-05-09T19:56:50.199Z,995.579
2024-05-09T19:58:49.590Z,995.566
2024-05-09T20:00:49.953Z,995.611
2024-05-09T20:02:50.424Z,995.552
2024-05-09T20:04:49.916Z,995.647
2024-05-09T20:06:49.525Z,995.652
2024-05-09T20:08:49.691Z,995.708
2024-05-09T20:10:50.030Z,995.637
2024-05-09T20:12:49.633Z,995.582
2024-05-09T20:14:50.118Z,995.544
2024-05-09T20:16:50.319Z,995.570
2024-05-09T20:18:49.754Z,995.666
2024-05-09T20:20:53.419Z,995.666
2024-05-09T20:22:49.576Z,995.547
2024-05-09T20:24:49.828Z,995.600
2024-05-09T20:26:50.102Z,995.614
2024-05-09T20:28:49.442Z,995.614
2024-05-09T20:30:49.876Z,995.570
2024-05-09T20:32:50.135Z,995.554
2024-05-09T20:34:49.466Z,995.578
2024-05-09T20:36:49.783Z,995.566
2024-05-09T20:38:50.118Z,995.559
2024-05-09T20:40:49.655Z,995.586
2024-05-09T20:42:49.930Z,995.490
2024-05-09T20:44:50.186Z,995.562
2024-05-09T20:46:49.554Z,995.476
2024-05-09T20:48:50.118Z,995.495
2024-05-09T20:50:49.667Z,995.542
2024-05-09T20:52:50.095Z,995.547
2024-05-09T20:54:49.455Z,995.597
2024-05-09T20:56:49.862Z,995.540
2024-05-09T20:58:50.101Z,995.591
2024-05-09T21:00:49.557Z,995.545
2024-05-09T21:02:49.931Z,995.629
2024-05-09T21:04:50.400Z,995.486
2024-05-09T21:06:49.761Z,995.611
2024-05-09T21:08:50.119Z,995.522
2024-05-09T21:10:50.527Z,995.601
2024-05-09T21:12:49.758Z,995.558
2024-05-09T21:14:50.225Z,995.458
2024-05-09T21:16:49.804Z,995.458
2024-05-09T21:18:50.242Z,995.550
2024-05-09T21:20:49.598Z,995.504
2024-05-09T21:22:49.846Z,995.545
2024-05-09T21:24:50.257Z,995.561
2024-05-09T21:26:49.632Z,995.586
2024-05-09T21:28:49.896Z,995.572
2024-05-09T21:30:50.142Z,995.537
2024-05-09T21:32:49.651Z,995.638
2024-05-09T21:34:50.229Z,995.634
2024-05-09T21:36:49.528Z,995.626
2024-05-09T21:38:49.750Z,995.600
2024-05-09T21:40:50.135Z,995.597
2024-05-09T21:42:49.613Z,995.508
2024-05-09T21:44:49.998Z,995.585
2024-05-09T21:46:49.448Z,995.532
2024-05-09T21:48:49.969Z,995.588
2024-05-09T21:50:50.229Z,995.477
2024-05-09T21:52:49.674Z,995.477
2024-05-09T21:54:50.088Z,995.467
2024-05-09T21:56:50.232Z,995.551
2024-05-09T21:58:49.490Z,995.560
2024-05-09T22:00:49.797Z,995.531
2024-05-09T22:02:50.150Z,995.490
2024-05-09T22:04:49.679Z,995.457
2024-05-09T22:06:49.972Z,995.579
2024-05-09T22:08:50.338Z,995.570
2024-05-09T22:10:49.797Z,995.530
2024-05-09T22:12:49.432Z,995.623
2024-05-09T22:14:49.824Z,995.581
2024-05-09T22:16:50.261Z,995.616
2024-05-09T22:18:49.965Z,995.594
2024-05-09T22:20:50.225Z,995.603
2024-05-09T22:22:49.445Z,995.594
2024-05-09T22:24:49.912Z,995.605
2024-05-09T22:26:50.296Z,995.580
2024-05-09T22:28:49.484Z,995.520
2024-05-09T22:30:49.952Z,995.538
2024-05-09T22:32:50.431Z,995.582
2024-05-09T22:34:50.039Z,995.623
2024-05-09T22:36:50.185Z,995.589
2024-05-09T22:38:49.574Z,995.642
2024-05-09T22:40:50.233Z,995.559
2024-05-09T22:42:49.436Z,995.595
2024-05-09T22:44:49.666Z,995.648
2024-05-09T22:46:49.859Z,995.627
2024-05-09T22:48:50.139Z,995.658
2024-05-09T22:50:49.494Z,995.735
2024-05-09T22:52:49.675Z,995.635
2024-05-09T22:54:49.705Z,995.798
2024-05-09T22:56:50.123Z,995.709
2024-05-09T22:58:50.288Z,995.690
2024-05-09T23:00:49.887Z,995.665
2024-05-09T23:02:49.477Z,995.578
2024-05-09T23:04:50.102Z,995.635
2024-05-09T23:06:49.369Z,995.646
2024-05-09T23:08:49.592Z,995.672
2024-05-09T23:10:49.870Z,995.601
2024-05-09T23:12:50.315Z,995.646
2024-05-09T23:14:49.638Z,995.623
2024-05-09T23:16:49.863Z,995.687
2024-05-09T23:18:50.192Z,995.608
2024-05-09T23:20:49.707Z,995.502
2024-05-09T23:22:49.882Z,995.578
2024-05-09T23:24:50.241Z,995.486
2024-05-09T23:26:49.546Z,995.492
2024-05-09T23:28:49.740Z,995.442
2024-05-09T23:30:50.007Z,995.441
2024-05-09T23:32:49.517Z,995.454
2024-05-09T23:34:50.081Z,995.485
2024-05-09T23:36:49.434Z,995.489
2024-05-09T23:38:49.618Z,995.441
2024-05-09T23:40:49.927Z,995.448
2024-05-09T23:42:50.285Z,995.403
2024-05-09T23:44:49.709Z,995.451
2024-05-09T23:46:50.094Z,995.476
2024-05-09T23:48:50.413Z,995.476
2024-05-09T23:50:49.694Z,995.480
2024-05-09T23:52:49.931Z,995.467
2024-05-09T23:54:50.306Z,995.451
2024-05-09T23:56:49.735Z,995.458
2024-05-09T23:58:49.954Z,995.378
